createdAt,value
2019-03-30T00:01:22.176Z,2.30
2019-03-30T00:03:52.215Z,2.22
2019-03-30T00:06:22.323Z,2.10
2019-03-30T00:08:52.344Z,2.52
2019-03-30T00:11:22.447Z,2.02
2019-03-30T00:13:52.450Z,2.60
2019-03-30T00:16:22.441Z,2.80
2019-03-30T00:18:52.489Z,2.62
2019-03-30T00:21:22.657Z,2.47
2019-03-30T00:23:52.667Z,2.77
2019-03-30T00:26:22.720Z,2.25
2019-03-30T00:28:52.758Z,2.30
2019-03-30T00:31:23.641Z,2.22
2019-03-30T00:33:53.705Z,2.30
2019-03-30T00:36:23.752Z,2.30
2019-03-30T00:38:53.784Z,2.40
2019-03-30T00:41:23.885Z,2.33
2019-03-30T00:43:53.920Z,2.20
2019-03-30T00:46:24.030Z,2.35
2019-03-30T00:48:54.072Z,2.50
2019-03-30T00:51:24.125Z,2.15
2019-03-30T00:53:54.192Z,2.42
2019-03-30T00:56:24.329Z,2.40
2019-03-30T00:58:54.368Z,2.35
2019-03-30T01:01:24.661Z,2.60
2019-03-30T07:59:42.108Z,1.98
2019-03-30T08:02:12.185Z,2.47
2019-03-30T08:04:43.283Z,2.30
2019-03-30T08:07:13.745Z,2.45
2019-03-30T08:09:46.393Z,2.70
2019-03-30T08:12:16.477Z,2.40
2019-03-30T08:14:47.007Z,2.72
2019-03-30T08:17:17.520Z,2.60
2019-03-30T08:19:50.293Z,2.10
2019-03-30T08:22:19.516Z,2.27
2019-03-30T08:24:50.380Z,2.22
2019-03-30T08:27:20.495Z,2.47
2019-03-30T08:29:51.069Z,2.12
2019-03-30T08:32:21.126Z,2.45
2019-03-30T08:34:51.613Z,2.33
2019-03-30T08:37:21.655Z,2.45
2019-03-30T08:39:52.102Z,1.95
2019-03-30T08:42:22.173Z,2.20
2019-03-30T08:44:52.172Z,2.50
2019-03-30T08:47:22.260Z,2.12
2019-03-30T08:49:52.329Z,2.35
2019-03-30T08:52:22.444Z,2.50
2019-03-30T08:54:52.455Z,3.25
2019-03-30T08:57:22.522Z,2.60
2019-03-30T08:59:52.628Z,1.80
2019-03-30T09:02:22.860Z,2.22
2019-03-30T09:04:52.921Z,2.12
2019-03-30T09:07:22.974Z,2.60
2019-03-30T09:09:53.013Z,2.87
2019-03-30T09:12:23.103Z,2.33
2019-03-30T09:14:53.187Z,1.90
2019-03-30T09:17:23.394Z,2.52
2019-03-30T09:19:53.556Z,2.12
2019-03-30T09:22:23.682Z,2.25
2019-03-30T09:24:53.793Z,1.85
2019-03-30T09:27:25.099Z,2.10
2019-03-30T09:29:56.666Z,2.30
2019-03-30T09:32:26.783Z,2.05
2019-03-30T09:34:56.865Z,2.40
2019-03-30T09:37:26.978Z,1.62
2019-03-30T09:39:57.067Z,2.20
2019-03-30T09:42:27.092Z,2.45
2019-03-30T09:44:57.133Z,2.35
2019-03-30T09:47:27.191Z,2.05
2019-03-30T09:49:57.288Z,2.52
2019-03-30T09:52:27.324Z,2.47
2019-03-30T09:54:57.415Z,2.00
2019-03-30T09:57:27.538Z,2.27
2019-03-30T09:59:57.612Z,2.30
2019-03-30T10:02:27.797Z,2.12
2019-03-30T10:04:57.940Z,2.33
2019-03-30T10:07:28.034Z,2.17
2019-03-30T10:09:58.161Z,2.05
2019-03-30T10:12:28.232Z,2.45
2019-03-30T10:14:58.261Z,2.35
2019-03-30T10:17:28.351Z,2.40
2019-03-30T10:20:04.706Z,2.12
2019-03-30T10:22:30.185Z,2.30
2019-03-30T10:25:00.310Z,2.52
2019-03-30T10:27:30.336Z,1.92
2019-03-30T10:30:00.523Z,2.15
2019-03-30T10:32:30.621Z,1.82
2019-03-30T10:35:00.756Z,2.20
2019-03-30T10:37:30.774Z,2.12
2019-03-30T10:40:00.843Z,2.20
2019-03-30T10:42:31.062Z,2.00
2019-03-30T10:45:01.344Z,1.70
2019-03-30T10:47:31.387Z,1.80
2019-03-30T10:50:01.503Z,1.70
2019-03-30T10:52:31.578Z,2.10
2019-03-30T10:55:01.818Z,1.70
2019-03-30T10:57:31.909Z,1.95
2019-03-30T11:00:02.008Z,2.15
2019-03-30T11:02:32.162Z,1.80
2019-03-30T11:05:02.333Z,2.00
2019-03-30T11:07:32.384Z,2.10
2019-03-30T11:10:03.262Z,2.02
2019-03-30T11:12:33.358Z,2.00
2019-03-30T11:15:03.554Z,1.85
2019-03-30T11:17:33.685Z,1.98
2019-03-30T11:20:03.972Z,1.75
2019-03-30T11:22:34.177Z,1.87
2019-03-30T11:25:08.523Z,2.10
2019-03-30T11:27:38.343Z,2.00
2019-03-30T11:30:08.571Z,2.33
2019-03-30T11:32:38.696Z,1.82
2019-03-30T11:35:09.620Z,1.87
2019-03-30T11:37:39.767Z,1.70
2019-03-30T11:40:09.920Z,2.10
2019-03-30T11:42:40.014Z,2.00
2019-03-30T11:45:10.360Z,1.85
2019-03-30T11:47:40.372Z,2.27
2019-03-30T11:50:10.648Z,1.87
2019-03-30T11:52:40.688Z,2.00
2019-03-30T11:55:21.644Z,2.00
2019-03-30T11:57:42.688Z,2.15
2019-03-30T12:00:13.044Z,1.85
2019-03-30T12:02:43.212Z,1.90
2019-03-30T12:05:13.422Z,1.75
2019-03-30T12:07:43.525Z,2.20
2019-03-30T12:10:13.917Z,2.05
2019-03-30T12:12:43.958Z,2.15
2019-03-30T12:15:14.214Z,2.05
2019-03-30T12:17:46.587Z,2.27
2019-03-30T12:20:16.744Z,2.10
2019-03-30T12:22:46.978Z,1.87
2019-03-30T12:25:17.053Z,1.90
2019-03-30T12:27:47.115Z,2.10
2019-03-30T12:30:17.478Z,1.90
2019-03-30T12:32:47.731Z,2.30
2019-03-30T12:35:17.841Z,2.02
2019-03-30T12:37:47.962Z,2.02
2019-03-30T12:40:18.092Z,1.72
2019-03-30T12:42:48.179Z,1.92
2019-03-30T12:45:18.438Z,1.92
2019-03-30T12:47:48.473Z,2.22
2019-03-30T12:50:18.686Z,1.65
2019-03-30T12:52:48.768Z,2.10
2019-03-30T12:55:18.910Z,1.75
2019-03-30T12:57:48.984Z,1.98
2019-03-30T13:00:19.199Z,1.60
2019-03-30T13:02:49.301Z,1.70
2019-03-30T13:05:19.367Z,1.80
2019-03-30T13:07:49.487Z,1.77
2019-03-30T13:10:19.620Z,1.87
2019-03-30T13:12:49.768Z,2.05
2019-03-30T13:15:20.090Z,1.72
2019-03-30T13:17:50.181Z,1.80
2019-03-30T13:20:20.646Z,1.55
2019-03-30T13:22:52.084Z,1.90
2019-03-30T13:25:22.161Z,1.30
2019-03-30T13:27:53.509Z,1.70
2019-03-30T13:30:23.919Z,1.87
2019-03-30T13:32:54.009Z,1.90
2019-03-30T13:35:24.117Z,1.35
2019-03-30T13:37:54.228Z,1.47
2019-03-30T13:40:24.348Z,1.22
2019-03-30T13:42:54.601Z,1.80
2019-03-30T13:45:26.818Z,1.50
2019-03-30T13:47:57.058Z,1.60
2019-03-30T13:50:27.103Z,2.10
2019-03-30T13:52:59.750Z,2.08
2019-03-30T13:55:29.978Z,1.70
2019-03-30T13:58:00.126Z,2.20
2019-03-30T14:00:30.344Z,2.08
2019-03-30T14:03:00.501Z,2.00
2019-03-30T14:05:31.177Z,2.10
2019-03-30T14:08:01.476Z,1.70
2019-03-30T14:10:31.573Z,2.30
2019-03-30T14:13:02.688Z,2.00
2019-03-30T14:15:32.827Z,1.85
2019-03-30T14:18:02.936Z,2.05
2019-03-30T14:20:33.125Z,1.98
2019-03-30T14:23:03.528Z,1.95
2019-03-30T14:25:34.598Z,2.00
2019-03-30T14:28:04.780Z,2.10
2019-03-30T14:30:34.900Z,2.37
2019-03-30T14:33:05.173Z,2.05
2019-03-30T14:35:35.272Z,2.20
2019-03-30T14:38:05.296Z,2.58
2019-03-30T14:40:35.512Z,1.98
2019-03-30T14:43:05.646Z,2.77
2019-03-30T14:45:35.869Z,3.00
2019-03-30T14:48:05.998Z,2.58
2019-03-30T14:50:36.088Z,2.22
2019-03-30T14:53:07.279Z,2.42
2019-03-30T14:55:39.562Z,2.50
2019-03-30T14:58:09.298Z,2.40
2019-03-30T15:00:39.572Z,2.37
2019-03-30T15:03:11.006Z,2.77
2019-03-30T15:05:41.215Z,2.42
2019-03-30T15:08:11.308Z,3.10
2019-03-30T15:10:41.728Z,2.52
2019-03-30T15:13:13.286Z,2.87
2019-03-30T15:15:43.435Z,2.80
2019-03-30T15:18:13.589Z,3.45
2019-03-30T15:20:43.766Z,2.58
2019-03-30T15:23:13.893Z,3.35
2019-03-30T15:25:44.014Z,2.40
2019-03-30T15:28:14.631Z,2.72
2019-03-30T15:30:44.810Z,2.98
2019-03-30T15:33:15.031Z,3.55
2019-03-30T15:35:45.401Z,3.87
2019-03-30T15:38:15.557Z,3.17
2019-03-30T15:40:45.852Z,3.45
2019-03-30T15:43:16.087Z,3.37
2019-03-30T15:45:46.214Z,2.98
2019-03-30T15:48:16.406Z,3.02
2019-03-30T15:50:46.696Z,3.80
2019-03-30T15:53:17.092Z,3.22
2019-03-30T15:55:47.204Z,2.87
2019-03-30T15:58:17.332Z,3.02
2019-03-30T16:00:47.619Z,3.83
2019-03-30T16:03:17.895Z,2.80
2019-03-30T16:05:48.189Z,3.70
2019-03-30T16:08:18.259Z,2.50
2019-03-30T16:10:52.048Z,3.25
2019-03-30T16:13:20.187Z,2.92
2019-03-30T16:15:50.383Z,3.35
2019-03-30T16:18:20.474Z,3.20
2019-03-30T16:20:51.827Z,3.50
2019-03-30T16:23:22.016Z,2.98
2019-03-30T16:25:52.195Z,3.42
2019-03-30T16:28:22.461Z,3.00
2019-03-30T16:30:52.540Z,3.52
2019-03-30T16:33:23.067Z,3.12
2019-03-30T16:35:53.209Z,3.72
2019-03-30T16:38:23.331Z,4.00
2019-03-30T16:40:53.405Z,3.00
2019-03-30T16:43:23.570Z,3.05
2019-03-30T16:45:54.047Z,3.50
2019-03-30T16:48:24.106Z,3.12
2019-03-30T16:50:54.202Z,3.05
2019-03-30T16:53:25.284Z,2.75
2019-03-30T16:55:55.366Z,3.22
2019-03-30T16:58:25.594Z,3.35
2019-03-30T17:00:57.106Z,3.17
2019-03-30T17:03:27.324Z,3.27
2019-03-30T17:05:57.405Z,2.90
2019-03-30T17:08:27.512Z,3.25
2019-03-30T17:10:57.660Z,2.70
2019-03-30T17:13:27.803Z,3.25
2019-03-30T17:15:58.712Z,2.75
2019-03-30T17:18:28.936Z,3.60
2019-03-30T17:20:59.057Z,3.02
2019-03-30T17:23:29.201Z,2.87
2019-03-30T17:25:59.128Z,3.45
2019-03-30T17:28:29.315Z,3.10
2019-03-30T17:30:59.374Z,3.45
2019-03-30T17:33:29.608Z,3.25
2019-03-30T17:35:59.752Z,3.42
2019-03-30T17:38:29.942Z,3.62
2019-03-30T17:41:00.067Z,3.50
2019-03-30T17:43:30.143Z,3.20
2019-03-30T17:46:00.353Z,2.72
2019-03-30T17:48:32.227Z,3.05
2019-03-30T17:51:02.383Z,2.90
2019-03-30T17:53:34.098Z,2.90
2019-03-30T17:56:04.281Z,3.02
2019-03-30T17:58:34.749Z,2.60
2019-03-30T18:01:04.847Z,2.62
2019-03-30T18:03:34.976Z,2.85
2019-03-30T18:06:06.439Z,3.02
2019-03-30T18:08:36.668Z,2.98
2019-03-30T18:11:06.769Z,2.50
2019-03-30T18:13:37.068Z,2.87
2019-03-30T18:16:07.249Z,2.67
2019-03-30T18:18:38.582Z,3.30
2019-03-30T18:21:08.740Z,3.22
2019-03-30T18:23:38.799Z,3.92
2019-03-30T18:26:09.004Z,4.45
2019-03-30T18:28:39.112Z,4.12
2019-03-30T18:31:09.385Z,4.35
2019-03-30T18:33:39.720Z,4.37
2019-03-30T18:36:09.869Z,3.90
2019-03-30T18:38:41.474Z,3.62
2019-03-30T18:41:11.587Z,3.27
2019-03-30T18:43:41.726Z,4.00
2019-03-30T18:46:11.894Z,4.15
2019-03-30T18:48:41.971Z,3.27
2019-03-30T18:51:12.166Z,3.08
2019-03-30T18:53:43.000Z,3.37
2019-03-30T18:56:13.065Z,3.30
2019-03-30T18:58:44.258Z,3.33
2019-03-30T19:01:14.364Z,3.70
2019-03-30T19:03:44.522Z,3.65
2019-03-30T19:06:14.686Z,3.22
2019-03-30T19:08:44.812Z,3.80
2019-03-30T19:11:14.859Z,4.15
2019-03-30T19:13:44.985Z,3.58
2019-03-30T19:16:15.046Z,3.50
2019-03-30T19:18:45.219Z,4.15
2019-03-30T19:21:15.324Z,3.90
2019-03-30T19:23:45.453Z,3.37
2019-03-30T19:26:15.814Z,4.12
2019-03-30T19:28:56.116Z,4.12
2019-03-30T19:31:20.099Z,3.75
2019-03-30T19:33:50.218Z,3.40
2019-03-30T19:36:20.342Z,3.40
2019-03-30T19:38:50.378Z,3.30
2019-03-30T19:41:20.472Z,3.60
2019-03-30T19:43:50.571Z,3.42
2019-03-30T19:46:20.735Z,3.10
2019-03-30T19:48:50.820Z,3.37
2019-03-30T19:51:21.044Z,2.77
2019-03-30T19:53:51.413Z,3.27
2019-03-30T19:56:27.403Z,3.27
2019-03-30T19:59:10.026Z,3.20
2019-03-30T20:01:30.608Z,3.15
2019-03-30T20:04:00.747Z,3.22
2019-03-30T20:06:30.811Z,3.12
2019-03-30T20:09:00.905Z,3.12
2019-03-30T20:11:31.430Z,3.72
2019-03-30T20:14:01.541Z,3.15
2019-03-30T20:16:31.652Z,3.33
2019-03-30T20:19:11.882Z,3.35
2019-03-30T20:21:35.746Z,3.00
2019-03-30T20:24:05.968Z,3.10
2019-03-30T20:26:36.129Z,2.95
2019-03-30T20:29:06.287Z,3.02
2019-03-30T20:31:36.505Z,2.95
2019-03-30T20:34:08.728Z,3.00
2019-03-30T20:36:41.167Z,3.15
2019-03-30T20:39:11.622Z,2.70
2019-03-30T20:41:41.768Z,3.40
2019-03-30T20:44:12.180Z,3.40
2019-03-30T20:46:43.771Z,2.90
2019-03-30T20:49:14.025Z,2.83
2019-03-30T20:51:44.495Z,3.33
2019-03-30T20:54:14.603Z,3.30
2019-03-30T20:56:44.803Z,2.85
2019-03-30T20:59:15.023Z,2.80
2019-03-30T21:01:45.589Z,2.77
2019-03-30T21:04:16.051Z,3.70
2019-03-30T21:06:46.307Z,3.87
2019-03-30T21:09:16.543Z,4.55
2019-03-30T21:11:46.679Z,3.85
2019-03-30T21:14:16.774Z,3.98
2019-03-30T21:16:46.931Z,4.83
2019-03-30T21:19:17.331Z,4.67
2019-03-30T21:21:49.130Z,5.00
2019-03-30T21:24:19.470Z,5.28
2019-03-30T21:26:49.677Z,5.12
2019-03-30T21:29:19.834Z,5.28
2019-03-30T21:31:51.069Z,4.95
2019-03-30T21:34:21.484Z,4.78
2019-03-30T21:36:51.664Z,5.22
2019-03-30T21:39:24.940Z,5.40
2019-03-30T21:41:55.572Z,5.40
2019-03-30T21:44:25.650Z,5.10
2019-03-30T21:46:56.003Z,5.37
2019-03-30T21:49:26.201Z,5.47
2019-03-30T21:51:56.269Z,5.35
2019-03-30T21:54:26.468Z,5.35
2019-03-30T21:56:56.736Z,5.35
2019-03-30T21:59:26.842Z,5.17
2019-03-30T22:01:59.402Z,5.37
2019-03-30T22:04:29.716Z,5.00
2019-03-30T22:07:01.076Z,4.78
2019-03-30T22:09:31.663Z,4.83
2019-03-30T22:12:01.927Z,5.03
2019-03-30T22:14:32.276Z,5.25
2019-03-30T22:17:02.339Z,4.90
2019-03-30T22:19:33.955Z,4.83
2019-03-30T22:22:04.193Z,5.00
2019-03-30T22:24:34.296Z,4.33
2019-03-30T22:27:04.476Z,4.50
2019-03-30T22:29:34.691Z,5.00
2019-03-30T22:32:04.870Z,4.17
2019-03-30T22:34:35.024Z,4.65
2019-03-30T22:37:05.148Z,4.55
2019-03-30T22:39:35.242Z,4.30
2019-03-30T22:42:05.336Z,4.05
2019-03-30T22:44:35.483Z,4.05
2019-03-30T22:47:05.571Z,4.47
2019-03-30T22:49:35.763Z,4.47
2019-03-30T22:52:05.970Z,4.12
2019-03-30T22:54:36.108Z,4.03
2019-03-30T22:57:06.219Z,3.98
2019-03-30T22:59:36.370Z,3.45
2019-03-30T23:02:06.719Z,4.45
2019-03-30T23:04:36.857Z,4.37
2019-03-30T23:07:06.983Z,4.00
2019-03-30T23:09:37.017Z,3.50
2019-03-30T23:12:09.121Z,3.87
2019-03-30T23:14:39.183Z,3.42
2019-03-30T23:17:09.210Z,3.12
2019-03-30T23:19:39.452Z,3.60
2019-03-30T23:22:09.844Z,3.58
2019-03-30T23:24:39.973Z,3.47
2019-03-30T23:27:10.054Z,3.37
2019-03-30T23:29:40.122Z,3.20
2019-03-30T23:32:10.206Z,2.92
2019-03-30T23:34:40.289Z,3.25
2019-03-30T23:37:10.358Z,3.85
2019-03-30T23:39:40.427Z,3.17
2019-03-30T23:42:10.490Z,3.10
2019-03-30T23:44:40.530Z,2.70
2019-03-30T23:47:10.643Z,2.80
2019-03-30T23:49:40.827Z,2.62
2019-03-30T23:52:11.005Z,2.55
2019-03-30T23:54:41.009Z,2.77
2019-03-30T23:57:11.041Z,2.72
2019-03-30T23:59:41.086Z,2.92
